Time;durP1;ratioP1;P1;durP2;ratioP2;P2;SDS_P1;SDS_P2;PMS_P1;PMS_P2;Temp;Humidity;BMP_temperature;BMP_pressure;BME280_temperature;BME280_humidity;BME280_pressure;Samples;Min_cycle;Max_cycle;Signal;HPM_P1;HPM_P2
2024/03/09 00:01:36;;;;;;;3.20;1.17;;;12.00;57.40;;;;;;6308371;28;20467;-77
2024/03/09 00:04:38;;;;;;;3.60;1.10;;;12.00;57.20;;;;;;6308478;28;20095;-78
2024/03/09 00:07:43;;;;;;;5.10;1.67;;;12.00;57.10;;;;;;6291698;28;20089;-79
2024/03/09 00:10:51;;;;;;;1.23;0.93;;;12.00;57.00;;;;;;6289226;28;20030;-77
2024/03/09 00:13:54;;;;;;;3.30;1.58;;;12.00;56.90;;;;;;6283493;28;20066;-78
2024/03/09 00:16:56;;;;;;;0.65;0.55;;;12.00;56.80;;;;;;6303699;28;20032;-78
2024/03/09 00:19:58;;;;;;;3.03;1.27;;;11.90;56.80;;;;;;6291104;28;20035;-78
2024/03/09 00:22:59;;;;;;;2.90;1.65;;;12.00;56.90;;;;;;6274614;28;20558;-78
2024/03/09 00:26:05;;;;;;;1.98;1.00;;;11.90;56.90;;;;;;6308141;28;20119;-79
2024/03/09 00:29:06;;;;;;;0.98;0.70;;;11.90;56.80;;;;;;6290544;28;20382;-78
2024/03/09 00:32:08;;;;;;;1.25;0.90;;;11.90;56.80;;;;;;6308486;28;20020;-79
2024/03/09 00:35:09;;;;;;;1.52;0.50;;;11.90;56.60;;;;;;6302378;28;20016;-78
2024/03/09 00:38:13;;;;;;;2.83;0.80;;;11.80;56.50;;;;;;6307648;28;20417;-78
2024/03/09 00:41:14;;;;;;;3.55;0.90;;;11.80;56.40;;;;;;6309282;28;20016;-79
2024/03/09 00:44:15;;;;;;;1.58;0.73;;;11.90;56.30;;;;;;6294712;28;20056;-79
2024/03/09 00:47:16;;;;;;;0.95;0.50;;;11.90;56.20;;;;;;6297613;28;20035;-78
2024/03/09 00:50:18;;;;;;;1.15;0.80;;;11.90;56.10;;;;;;6307373;28;20060;-79
2024/03/09 00:53:19;;;;;;;1.58;0.95;;;11.90;56.10;;;;;;6308978;28;20085;-78
2024/03/09 00:56:21;;;;;;;1.05;0.90;;;12.00;56.00;;;;;;6297830;28;20059;-78
2024/03/09 00:59:22;;;;;;;2.65;1.05;;;12.00;56.00;;;;;;6306190;28;20008;-78
2024/03/09 01:02:25;;;;;;;1.52;0.85;;;12.00;56.00;;;;;;6308733;28;20031;-78
2024/03/09 01:05:26;;;;;;;1.55;0.90;;;12.00;56.00;;;;;;6306703;28;20589;-78
2024/03/09 01:08:29;;;;;;;5.35;1.35;;;12.00;56.10;;;;;;6308161;28;20028;-79
2024/03/09 01:11:33;;;;;;;0.73;0.73;;;11.90;56.20;;;;;;6306595;28;20024;-78
2024/03/09 01:14:33;;;;;;;2.45;1.17;;;11.90;56.20;;;;;;6305789;28;20468;-77
2024/03/09 01:17:38;;;;;;;2.05;1.30;;;11.90;56.80;;;;;;6305284;28;20028;-78
2024/03/09 01:20:40;;;;;;;3.58;0.98;;;11.90;56.30;;;;;;6273414;28;20044;-77
2024/03/09 01:23:41;;;;;;;5.13;1.20;;;11.90;56.50;;;;;;6306817;28;20102;-79
2024/03/09 01:26:42;;;;;;;1.73;0.98;;;11.90;56.60;;;;;;6305099;28;20093;-78
2024/03/09 01:29:49;;;;;;;0.88;0.60;;;11.90;56.60;;;;;;6295352;28;20019;-78
2024/03/09 01:32:50;;;;;;;2.67;1.67;;;11.80;56.70;;;;;;6306688;28;20131;-79
2024/03/09 01:35:52;;;;;;;1.55;0.90;;;11.80;57.10;;;;;;6306811;28;20077;-78
2024/03/09 01:38:53;;;;;;;2.63;1.30;;;11.70;57.10;;;;;;6303934;28;20503;-77
2024/03/09 01:41:54;;;;;;;3.05;0.90;;;11.70;57.00;;;;;;6307987;28;20024;-78
2024/03/09 01:44:56;;;;;;;1.17;0.70;;;11.80;57.00;;;;;;6307827;28;20590;-78
2024/03/09 01:48:00;;;;;;;2.53;0.88;;;11.80;56.80;;;;;;6307229;28;20035;-78
2024/03/09 01:51:01;;;;;;;4.90;0.98;;;11.80;56.60;;;;;;6304616;28;20043;-79
2024/03/09 01:54:19;;;;;;;1.90;1.10;;;11.90;56.20;;;;;;6305777;28;20128;-79
2024/03/09 01:57:20;;;;;;;2.53;1.45;;;12.00;56.10;;;;;;6305746;28;20035;-78
2024/03/09 02:00:23;;;;;;;2.92;1.38;;;12.00;56.00;;;;;;6304988;28;20023;-79
2024/03/09 02:03:25;;;;;;;3.00;1.15;;;12.00;56.00;;;;;;6306146;28;20027;-79
2024/03/09 02:06:27;;;;;;;1.48;1.08;;;12.00;56.10;;;;;;6306302;28;20024;-78
2024/03/09 02:09:29;;;;;;;3.47;1.50;;;12.00;56.10;;;;;;6272711;28;20020;-78
2024/03/09 02:12:30;;;;;;;3.72;1.50;;;12.00;56.20;;;;;;6305228;28;20020;-80
2024/03/09 02:15:33;;;;;;;1.92;0.90;;;11.90;56.30;;;;;;6290262;28;20023;-79
2024/03/09 02:18:34;;;;;;;1.67;1.00;;;11.90;56.30;;;;;;6272696;28;20020;-79
2024/03/09 02:21:45;;;;;;;2.60;1.27;;;11.90;56.10;;;;;;6304497;28;20063;-77
2024/03/09 02:24:55;;;;;;;1.08;0.98;;;11.90;56.10;;;;;;6288087;28;20104;-79
2024/03/09 02:27:56;;;;;;;2.28;1.00;;;12.00;56.80;;;;;;6293599;28;20068;-78
2024/03/09 02:30:59;;;;;;;1.95;1.00;;;11.90;55.90;;;;;;6310766;28;20020;-78
2024/03/09 02:34:08;;;;;;;3.47;1.25;;;11.90;56.00;;;;;;6308128;28;20083;-79
2024/03/09 02:37:13;;;;;;;0.20;0.20;;;11.90;55.80;;;;;;6268208;28;20031;-80
2024/03/09 02:40:14;;;;;;;1.20;0.70;;;11.90;55.40;;;;;;6303214;28;20020;-78
2024/03/09 02:43:18;;;;;;;2.25;1.00;;;12.00;54.90;;;;;;6310714;28;20112;-78
2024/03/09 02:46:25;;;;;;;3.05;1.00;;;12.10;54.70;;;;;;6311257;28;20028;-79
2024/03/09 02:49:25;;;;;;;3.22;1.20;;;12.10;54.50;;;;;;6309893;28;20040;-78
2024/03/09 02:52:27;;;;;;;1.98;1.02;;;12.20;54.60;;;;;;6309645;28;20550;-79
2024/03/09 02:55:27;;;;;;;1.63;0.85;;;12.20;54.40;;;;;;6299599;28;20073;-79
2024/03/09 02:58:28;;;;;;;0.93;0.50;;;12.20;54.20;;;;;;6306751;28;20119;-78
2024/03/09 03:01:29;;;;;;;1.73;0.70;;;12.20;54.30;;;;;;6286368;28;20484;-78
2024/03/09 03:04:30;;;;;;;1.58;0.82;;;12.20;54.30;;;;;;6291902;28;20024;-79
2024/03/09 03:07:31;;;;;;;1.27;0.60;;;12.20;54.40;;;;;;6291671;28;20112;-78
2024/03/09 03:10:33;;;;;;;1.48;0.70;;;12.10;54.10;;;;;;6310839;28;20689;-79
2024/03/09 03:13:34;;;;;;;2.30;1.10;;;12.10;54.10;;;;;;6293998;28;20039;-78
2024/03/09 03:16:36;;;;;;;2.35;1.00;;;12.10;54.20;;;;;;6287051;28;20016;-77
2024/03/09 03:19:37;;;;;;;4.05;0.98;;;12.10;54.20;;;;;;6309169;28;20467;-80
2024/03/09 03:22:39;;;;;;;1.55;0.90;;;12.10;54.00;;;;;;6310035;28;20020;-79
2024/03/09 03:25:39;;;;;;;1.98;0.95;;;12.20;53.80;;;;;;6310814;28;20066;-79
2024/03/09 03:28:44;;;;;;;1.65;0.90;;;12.20;53.70;;;;;;6305152;28;20032;-77
2024/03/09 03:31:47;;;;;;;0.93;0.82;;;12.20;53.60;;;;;;6283974;28;20441;-79
2024/03/09 03:34:49;;;;;;;5.50;0.70;;;12.20;53.40;;;;;;6275786;28;20016;-79
2024/03/09 03:37:49;;;;;;;2.78;0.65;;;12.20;53.50;;;;;;6308114;28;20031;-79
2024/03/09 03:40:51;;;;;;;1.25;0.75;;;12.20;53.50;;;;;;6309000;28;20133;-78
2024/03/09 03:43:54;;;;;;;1.50;0.98;;;12.20;53.30;;;;;;6307845;28;20063;-78
2024/03/09 03:46:56;;;;;;;7.65;1.27;;;12.30;53.30;;;;;;6309340;28;20044;-79
2024/03/09 03:49:57;;;;;;;2.15;1.20;;;12.30;53.30;;;;;;6308673;28;20031;-80
2024/03/09 03:53:04;;;;;;;2.10;1.15;;;12.10;53.50;;;;;;6310303;28;20024;-78
2024/03/09 03:56:07;;;;;;;4.00;1.90;;;12.10;53.90;;;;;;6309344;28;20465;-78
2024/03/09 03:59:09;;;;;;;3.70;1.55;;;11.90;54.20;;;;;;6309901;28;20111;-78
2024/03/09 04:02:10;;;;;;;3.97;2.08;;;11.80;54.50;;;;;;6309619;28;20043;-79
2024/03/09 04:05:11;;;;;;;2.38;1.25;;;11.70;54.90;;;;;;6307726;28;20061;-80
2024/03/09 04:08:12;;;;;;;5.70;2.17;;;11.60;55.10;;;;;;6307148;28;20190;-79
2024/03/09 04:11:14;;;;;;;2.55;1.65;;;11.60;55.30;;;;;;6282758;28;20032;-79
2024/03/09 04:14:17;;;;;;;0.80;0.77;;;11.50;55.30;;;;;;6291413;28;20020;-79
2024/03/09 04:17:17;;;;;;;2.53;1.52;;;11.40;55.30;;;;;;6307420;28;20149;-79
2024/03/09 04:20:21;;;;;;;2.50;1.55;;;11.40;55.30;;;;;;6307003;28;20024;-79
2024/03/09 04:23:22;;;;;;;3.03;1.65;;;11.40;55.40;;;;;;6319869;28;20107;-79
2024/03/09 04:26:26;;;;;;;4.28;1.70;;;11.30;55.50;;;;;;6290563;28;20155;-79
2024/03/09 04:29:27;;;;;;;4.18;2.22;;;11.30;55.60;;;;;;6307441;28;20032;-79
2024/03/09 04:32:29;;;;;;;3.75;1.92;;;11.30;55.60;;;;;;6305719;28;20032;-78
2024/03/09 04:35:33;;;;;;;3.17;1.88;;;11.20;55.90;;;;;;6307968;28;20039;-78
2024/03/09 04:38:35;;;;;;;6.53;2.10;;;11.10;56.10;;;;;;6306820;28;20030;-79
2024/03/09 04:41:36;;;;;;;3.60;2.05;;;11.10;56.30;;;;;;6306640;28;20027;-79
2024/03/09 04:44:38;;;;;;;2.95;1.55;;;10.90;56.30;;;;;;6307444;28;20552;-79
2024/03/09 04:47:42;;;;;;;4.95;2.40;;;11.00;56.50;;;;;;6306661;28;20060;-78
2024/03/09 04:50:49;;;;;;;3.35;2.03;;;10.80;56.60;;;;;;6308619;28;20434;-78
2024/03/09 04:53:51;;;;;;;3.95;1.88;;;10.80;56.90;;;;;;6296021;28;20134;-79
2024/03/09 04:56:52;;;;;;;8.80;2.72;;;10.80;56.90;;;;;;6270648;28;20024;-78
2024/03/09 04:59:53;;;;;;;3.75;1.77;;;10.70;57.10;;;;;;6306502;28;20448;-78
2024/03/09 05:02:55;;;;;;;4.25;2.28;;;10.70;57.00;;;;;;6289821;28;20657;-79
2024/03/09 05:05:57;;;;;;;5.47;2.40;;;10.70;57.00;;;;;;6301599;28;20069;-78
2024/03/09 05:09:00;;;;;;;2.47;1.92;;;10.70;57.00;;;;;;6307409;28;20032;-78
2024/03/09 05:12:03;;;;;;;5.50;1.95;;;10.70;57.10;;;;;;6308896;28;20034;-78
2024/03/09 05:15:05;;;;;;;9.75;2.40;;;10.60;57.10;;;;;;6286597;28;20031;-78
2024/03/09 05:18:07;;;;;;;4.28;2.03;;;10.60;57.30;;;;;;6272631;28;20059;-78
2024/03/09 05:21:08;;;;;;;5.07;1.88;;;10.60;57.30;;;;;;6307093;28;20031;-78
2024/03/09 05:24:09;;;;;;;3.40;2.22;;;10.60;57.20;;;;;;6305679;28;20020;-78
2024/03/09 05:27:10;;;;;;;3.40;1.92;;;10.60;57.20;;;;;;6288160;28;20649;-78
2024/03/09 05:30:18;;;;;;;6.80;2.88;;;10.60;57.10;;;;;;6305700;28;20103;-78
2024/03/09 05:33:19;;;;;;;9.93;3.17;;;10.60;57.10;;;;;;6302943;28;20024;-79
2024/03/09 05:36:20;;;;;;;4.68;1.73;;;10.60;57.20;;;;;;6305142;28;20777;-78
2024/03/09 05:39:22;;;;;;;3.60;2.03;;;10.50;57.20;;;;;;6307261;28;20149;-78
2024/03/09 05:42:23;;;;;;;3.70;2.45;;;10.40;57.20;;;;;;6308413;28;20059;-78
2024/03/09 05:45:24;;;;;;;3.80;2.63;;;10.40;57.40;;;;;;6306819;28;20028;-81
2024/03/09 05:48:27;;;;;;;5.03;2.53;;;10.40;57.50;;;;;;6291891;28;20040;-79
2024/03/09 05:51:31;;;;;;;4.50;2.53;;;10.30;57.60;;;;;;6288647;28;20239;-80
2024/03/09 05:54:33;;;;;;;6.75;2.28;;;10.30;57.70;;;;;;6262367;28;20075;-79
2024/03/09 05:57:37;;;;;;;0.43;0.43;;;10.20;57.80;;;;;;6292164;28;20127;-78
2024/03/09 06:00:38;;;;;;;3.75;1.85;;;10.20;57.70;;;;;;6300544;28;20396;-80
2024/03/09 06:03:41;;;;;;;4.15;2.05;;;10.30;57.50;;;;;;6305972;28;20047;-81
2024/03/09 06:06:42;;;;;;;5.00;2.47;;;10.30;57.40;;;;;;6306291;28;20123;-80
2024/03/09 06:09:46;;;;;;;5.53;2.83;;;10.40;57.20;;;;;;6288907;28;20360;-78
2024/03/09 06:12:49;;;;;;;10.05;2.53;;;10.40;57.20;;;;;;6307286;28;20066;-79
2024/03/09 06:15:50;;;;;;;10.65;2.50;;;10.40;57.20;;;;;;6305417;28;20422;-80
2024/03/09 06:18:52;;;;;;;7.30;2.75;;;10.40;57.00;;;;;;6288896;28;20032;-79
2024/03/09 06:21:53;;;;;;;3.70;2.25;;;10.40;57.00;;;;;;6304297;28;20046;-79
2024/03/09 06:24:54;;;;;;;7.03;2.40;;;10.40;57.00;;;;;;6306086;28;20369;-79
2024/03/09 06:27:59;;;;;;;6.43;3.08;;;10.40;57.10;;;;;;6308124;28;20557;-80
2024/03/09 06:31:03;;;;;;;3.58;2.38;;;10.40;57.10;;;;;;6300762;28;20529;-79
2024/03/09 06:34:04;;;;;;;3.85;1.75;;;10.40;57.00;;;;;;6287490;28;20016;-77
2024/03/09 06:37:06;;;;;;;4.32;1.95;;;10.40;57.00;;;;;;6295712;28;20020;-79
2024/03/09 06:40:08;;;;;;;2.92;2.15;;;10.40;56.90;;;;;;6306716;28;20494;-79
2024/03/09 06:43:11;;;;;;;2.42;1.15;;;10.40;57.00;;;;;;6307004;28;20128;-79
2024/03/09 06:46:14;;;;;;;6.15;1.98;;;10.50;56.60;;;;;;6325566;28;20038;-80
2024/03/09 06:49:17;;;;;;;3.70;2.08;;;10.40;56.40;;;;;;6331825;28;20036;-80
2024/03/09 06:52:18;;;;;;;4.35;1.88;;;10.60;56.50;;;;;;6322471;28;20024;-79
2024/03/09 06:55:25;;;;;;;5.68;1.63;;;10.50;56.30;;;;;;6330059;28;20012;-80
2024/03/09 06:58:28;;;;;;;5.13;2.67;;;10.60;56.20;;;;;;6338198;28;20415;-80
2024/03/09 07:01:30;;;;;;;4.72;2.20;;;10.60;56.10;;;;;;6346746;28;20020;-80
2024/03/09 07:04:32;;;;;;;7.38;2.70;;;10.70;55.90;;;;;;6315396;28;20024;-81
2024/03/09 07:07:33;;;;;;;5.22;2.38;;;10.70;55.90;;;;;;6341000;28;20024;-80
2024/03/09 07:10:35;;;;;;;2.53;1.77;;;10.70;55.70;;;;;;6345912;28;20042;-80
2024/03/09 07:13:42;;;;;;;11.35;3.05;;;10.70;55.50;;;;;;6337282;28;20120;-80
2024/03/09 07:16:45;;;;;;;3.80;2.20;;;10.70;55.40;;;;;;6346502;28;20038;-81
2024/03/09 07:19:47;;;;;;;5.38;2.03;;;10.60;55.40;;;;;;6300154;28;20059;-80
2024/03/09 07:22:50;;;;;;;4.53;2.38;;;10.70;55.50;;;;;;6322069;28;21562;-78
2024/03/09 07:25:53;;;;;;;2.25;1.58;;;10.70;55.60;;;;;;6323278;28;20384;-83
2024/03/09 07:28:55;;;;;;;4.45;2.00;;;10.70;55.70;;;;;;6322604;28;20096;-80
2024/03/09 07:31:56;;;;;;;1.80;0.82;;;10.80;55.60;;;;;;6344058;27;20024;-82
2024/03/09 07:34:57;;;;;;;4.50;1.67;;;10.90;55.30;;;;;;6330862;28;20020;-81
2024/03/09 07:37:59;;;;;;;3.28;1.88;;;11.00;54.90;;;;;;6329830;28;20043;-80
2024/03/09 07:41:00;;;;;;;4.25;1.70;;;11.10;54.70;;;;;;6303899;28;20023;-77
2024/03/09 07:44:06;;;;;;;3.80;1.77;;;11.30;54.40;;;;;;6314439;28;20067;-81
2024/03/09 07:47:08;;;;;;;3.47;1.65;;;11.40;54.00;;;;;;6295021;28;20101;-80
2024/03/09 07:50:13;;;;;;;4.63;1.67;;;11.50;53.90;;;;;;6344877;27;20151;-80
2024/03/09 07:53:14;;;;;;;3.53;1.75;;;11.60;53.40;;;;;;6319460;28;20515;-79
2024/03/09 07:56:16;;;;;;;3.53;2.00;;;11.60;53.20;;;;;;6315980;28;20019;-80
2024/03/09 07:59:17;;;;;;;1.83;1.05;;;11.60;53.10;;;;;;6314799;28;20095;-80
2024/03/09 08:02:19;;;;;;;4.18;2.30;;;11.50;53.00;;;;;;6294285;28;20098;-79
2024/03/09 08:05:28;;;;;;;2.70;1.63;;;11.60;52.90;;;;;;6297392;28;20024;-79
2024/03/09 08:08:29;;;;;;;9.85;1.73;;;11.60;53.00;;;;;;6282211;28;20107;-79
2024/03/09 08:11:31;;;;;;;2.95;1.65;;;11.80;52.90;;;;;;6306330;28;20032;-79
2024/03/09 08:14:33;;;;;;;2.72;1.60;;;12.00;52.60;;;;;;6274355;28;20040;-78
2024/03/09 08:17:36;;;;;;;3.03;1.50;;;12.10;52.30;;;;;;6293516;28;20046;-78
2024/03/09 08:20:39;;;;;;;7.05;2.10;;;12.20;52.70;;;;;;6309302;28;20020;-79
2024/03/09 08:23:42;;;;;;;2.67;1.60;;;12.30;51.90;;;;;;6309108;28;20058;-78
2024/03/09 08:26:45;;;;;;;5.78;2.35;;;12.40;51.70;;;;;;6309080;28;20069;-78
2024/03/09 08:29:46;;;;;;;4.07;1.80;;;12.60;51.40;;;;;;6292731;28;20028;-77
2024/03/09 08:32:50;;;;;;;3.75;2.00;;;12.70;51.30;;;;;;6296131;28;20420;-78
2024/03/09 08:35:58;;;;;;;5.95;1.77;;;12.90;51.20;;;;;;6306539;28;20020;-78
2024/03/09 08:38:58;;;;;;;4.55;2.10;;;13.00;50.60;;;;;;6288539;28;20382;-78
2024/03/09 08:42:01;;;;;;;3.30;2.22;;;13.10;50.30;;;;;;6308489;28;20046;-78
2024/03/09 08:45:05;;;;;;;2.97;1.75;;;13.20;50.10;;;;;;6306333;28;20586;-77
2024/03/09 08:48:12;;;;;;;6.25;2.53;;;13.30;50.10;;;;;;6305778;28;20052;-78
2024/03/09 08:51:12;;;;;;;6.38;1.98;;;13.30;49.70;;;;;;6297581;28;20432;-78
2024/03/09 08:54:13;;;;;;;8.13;2.47;;;13.40;49.50;;;;;;6304472;28;20020;-78
2024/03/09 08:57:17;;;;;;;4.40;2.45;;;13.40;49.60;;;;;;6280379;28;20167;-77
2024/03/09 09:00:23;;;;;;;8.35;3.08;;;13.40;49.70;;;;;;6305692;28;20028;-79
2024/03/09 09:03:25;;;;;;;5.82;2.97;;;13.50;49.80;;;;;;6288122;28;20391;-77
2024/03/09 09:06:25;;;;;;;3.05;2.03;;;13.50;49.80;;;;;;6308970;28;20112;-77
2024/03/09 09:09:26;;;;;;;6.47;2.15;;;13.50;49.80;;;;;;6304282;28;20037;-78
2024/03/09 09:12:27;;;;;;;10.20;2.28;;;13.50;49.70;;;;;;6302029;28;20046;-77
2024/03/09 09:15:29;;;;;;;4.13;1.75;;;13.60;49.80;;;;;;6306020;28;20020;-76
2024/03/09 09:18:29;;;;;;;4.72;1.90;;;13.60;49.90;;;;;;6273999;28;20028;-79
2024/03/09 09:21:34;;;;;;;8.38;2.05;;;13.70;49.00;;;;;;6283540;28;20133;-78
2024/03/09 09:24:36;;;;;;;4.38;2.30;;;13.80;48.30;;;;;;6303217;28;20123;-78
2024/03/09 09:27:38;;;;;;;3.97;1.90;;;14.00;48.30;;;;;;6305590;28;20028;-79
2024/03/09 09:30:40;;;;;;;4.47;2.38;;;14.10;47.90;;;;;;6286990;28;20066;-79
2024/03/09 09:33:42;;;;;;;2.60;1.08;;;14.30;47.90;;;;;;6301122;28;20561;-79
2024/03/09 09:36:45;;;;;;;4.38;1.70;;;14.50;46.00;;;;;;6267709;28;20033;-80
2024/03/09 09:39:49;;;;;;;0.52;0.43;;;14.90;45.10;;;;;;6293624;28;20004;-78
2024/03/09 09:42:51;;;;;;;0.13;0.13;;;15.10;43.40;;;;;;6290358;28;20029;-79
2024/03/09 09:45:53;;;;;;;1.80;0.65;;;15.50;41.40;;;;;;6276554;28;20009;-80
2024/03/09 09:48:55;;;;;;;1.77;0.68;;;16.00;41.40;;;;;;6283443;28;20048;-77
2024/03/09 09:51:56;;;;;;;1.95;0.55;;;16.40;39.50;;;;;;6280787;28;20083;-79
2024/03/09 09:55:01;;;;;;;0.38;0.32;;;16.70;38.60;;;;;;6294763;28;20123;-78
2024/03/09 09:58:03;;;;;;;0.30;0.30;;;17.00;37.90;;;;;;6304100;28;20016;-77
2024/03/09 10:01:04;;;;;;;0.20;0.20;;;17.30;36.90;;;;;;6285758;28;20020;-80
2024/03/09 10:04:05;;;;;;;0.30;0.30;;;17.50;34.90;;;;;;6302688;28;20032;-78
2024/03/09 10:07:08;;;;;;;0.22;0.22;;;17.80;34.60;;;;;;6303777;28;20460;-78
2024/03/09 10:10:16;;;;;;;0.28;0.20;;;18.00;34.40;;;;;;6303814;28;20028;-79
2024/03/09 10:13:17;;;;;;;0.57;0.15;;;18.20;33.80;;;;;;6305250;28;20016;-77
2024/03/09 10:16:28;;;;;;;0.38;0.38;;;18.30;32.30;;;;;;6303747;28;20028;-77
2024/03/09 10:19:30;;;;;;;0.45;0.45;;;18.50;31.80;;;;;;6287507;28;20035;-77
2024/03/09 10:22:34;;;;;;;0.30;0.30;;;18.60;30.50;;;;;;6304958;28;20089;-76
2024/03/09 10:25:36;;;;;;;0.40;0.30;;;18.70;30.00;;;;;;6293951;28;20105;-75
2024/03/09 10:28:37;;;;;;;0.10;0.10;;;18.80;30.10;;;;;;6301125;28;20064;-75
2024/03/09 10:31:42;;;;;;;0.50;0.28;;;18.90;29.40;;;;;;6295985;28;20082;-76
2024/03/09 10:34:44;;;;;;;0.00;0.00;;;19.00;29.50;;;;;;6305519;28;20033;-77
2024/03/09 10:37:48;;;;;;;2.83;1.45;;;19.10;28.80;;;;;;6291566;28;20141;-77
2024/03/09 10:40:57;;;;;;;2.25;0.85;;;19.20;29.20;;;;;;6313456;28;20602;-74
2024/03/09 10:44:01;;;;;;;1.35;0.63;;;19.30;29.20;;;;;;6300698;28;20511;-76
2024/03/09 10:47:12;;;;;;;0.30;0.28;;;19.50;29.30;;;;;;6315166;28;20035;-75
2024/03/09 10:50:26;;;;;;;0.63;0.15;;;19.60;28.90;;;;;;6296444;28;20028;-77
2024/03/09 10:53:37;;;;;;;0.17;0.17;;;19.70;28.20;;;;;;6321359;28;20083;-77
2024/03/09 10:56:39;;;;;;;0.10;0.10;;;19.80;28.30;;;;;;6332194;28;20032;-78
2024/03/09 10:59:41;;;;;;;1.13;0.30;;;19.80;27.40;;;;;;6308736;28;20050;-76
2024/03/09 11:02:46;;;;;;;2.13;0.40;;;19.80;27.90;;;;;;6303046;28;20031;-76
2024/03/09 11:05:48;;;;;;;0.55;0.35;;;19.80;28.20;;;;;;6321317;28;20396;-77
2024/03/09 11:08:56;;;;;;;0.52;0.17;;;19.80;27.70;;;;;;6324639;28;20032;-77
2024/03/09 11:11:59;;;;;;;;;;;19.80;27.90;;;;;;6305609;28;20025;-76
2024/03/09 11:15:00;;;;;;;0.30;0.10;;;19.90;28.20;;;;;;6301173;28;19969;-76
2024/03/09 11:18:06;;;;;;;10.32;1.10;;;20.00;27.80;;;;;;6306883;28;20036;-78
2024/03/09 11:21:07;;;;;;;1.67;0.70;;;20.00;27.80;;;;;;6322030;28;20099;-76
2024/03/09 11:24:12;;;;;;;5.82;2.97;;;20.10;28.20;;;;;;6321264;28;20042;-77
2024/03/09 11:27:13;;;;;;;5.63;2.90;;;20.10;30.00;;;;;;6290554;28;20036;-77
2024/03/09 11:30:17;;;;;;;12.68;3.95;;;19.80;31.40;;;;;;6302990;28;20032;-78
2024/03/09 11:33:21;;;;;;;13.05;3.75;;;19.60;32.20;;;;;;6302247;28;20036;-77
2024/03/09 11:37:00;;;;;;;7.50;3.38;;;19.30;33.10;;;;;;6320071;28;20016;-76
2024/03/09 11:40:02;;;;;;;4.32;1.23;;;19.10;34.10;;;;;;6241855;28;20477;-76
2024/03/09 11:43:11;;;;;;;3.40;1.00;;;19.10;33.20;;;;;;6238210;28;20210;-75
2024/03/09 11:46:13;;;;;;;3.67;1.13;;;19.10;31.20;;;;;;6222194;28;20025;-75
2024/03/09 11:49:18;;;;;;;0.30;0.13;;;19.30;31.00;;;;;;6240457;28;20501;-76
2024/03/09 11:52:22;;;;;;;0.35;0.15;;;19.50;29.60;;;;;;6255985;28;20945;-76
2024/03/09 11:55:26;;;;;;;0.88;0.77;;;19.70;28.50;;;;;;6224389;28;20090;-76
2024/03/09 11:58:30;;;;;;;4.82;2.33;;;19.80;28.70;;;;;;6240667;28;20032;-74
2024/03/09 12:01:32;;;;;;;0.45;0.40;;;20.00;28.40;;;;;;6240874;28;20595;-75
2024/03/09 12:04:33;;;;;;;2.63;1.17;;;20.10;27.70;;;;;;6239486;28;20028;-77
2024/03/09 12:07:34;;;;;;;0.98;0.65;;;20.30;28.20;;;;;;6257135;28;20112;-77
2024/03/09 12:10:38;;;;;;;0.20;0.20;;;20.40;27.80;;;;;;6241586;28;20127;-76
2024/03/09 12:13:39;;;;;;;0.50;0.40;;;20.40;27.40;;;;;;6217762;28;20037;-76
2024/03/09 12:16:41;;;;;;;0.17;0.17;;;20.50;27.10;;;;;;6318613;28;20040;-77
2024/03/09 12:19:47;;;;;;;0.63;0.40;;;20.40;27.30;;;;;;6323551;28;20024;-77
2024/03/09 12:22:50;;;;;;;0.38;0.22;;;20.50;27.50;;;;;;6309328;28;20022;-75
2024/03/09 12:25:51;;;;;;;0.82;0.20;;;20.50;26.70;;;;;;6306666;28;20480;-76
2024/03/09 12:28:59;;;;;;;0.88;0.30;;;20.50;27.10;;;;;;6287696;28;20432;-74
2024/03/09 12:32:01;;;;;;;0.25;0.22;;;20.60;27.20;;;;;;6292688;28;20034;-75
2024/03/09 12:35:04;;;;;;;1.27;0.30;;;20.60;27.30;;;;;;6308312;28;20114;-74
2024/03/09 12:38:16;;;;;;;0.20;0.20;;;20.60;27.30;;;;;;6293164;28;20143;-75
2024/03/09 12:41:28;;;;;;;2.88;0.80;;;20.60;27.40;;;;;;6307168;28;20060;-77
2024/03/09 12:44:37;;;;;;;0.10;0.10;;;20.70;27.50;;;;;;6306479;28;20524;-76
2024/03/09 12:47:42;;;;;;;0.25;0.20;;;20.90;27.10;;;;;;6290052;28;20127;-75
2024/03/09 12:50:45;;;;;;;0.13;0.13;;;21.00;26.20;;;;;;6305752;28;20024;-76
2024/03/09 12:54:06;;;;;;;0.20;0.20;;;21.20;26.20;;;;;;6305851;28;20059;-76
2024/03/09 12:57:09;;;;;;;3.53;0.32;;;21.50;25.70;;;;;;6305898;28;20024;-76
2024/03/09 13:00:19;;;;;;;0.10;0.10;;;21.60;25.00;;;;;;6315439;28;20032;-75
2024/03/09 13:03:21;;;;;;;0.20;0.20;;;21.80;24.30;;;;;;6318475;28;20044;-75
2024/03/09 13:06:25;;;;;;;0.35;0.22;;;21.80;24.30;;;;;;6327666;27;20472;-76
2024/03/09 13:09:30;;;;;;;0.20;0.20;;;21.80;24.90;;;;;;6309279;28;20057;-75
2024/03/09 13:12:33;;;;;;;1.13;0.27;;;21.80;24.80;;;;;;6319355;28;20039;-75
2024/03/09 13:15:35;;;;;;;5.78;0.50;;;21.90;25.20;;;;;;6317052;28;20095;-73
2024/03/09 13:18:37;;;;;;;1.13;0.30;;;21.80;25.00;;;;;;6309958;28;20065;-76
2024/03/09 13:21:41;;;;;;;0.55;0.40;;;21.70;24.90;;;;;;6313339;28;20118;-76
2024/03/09 13:24:42;;;;;;;0.70;0.30;;;21.70;25.10;;;;;;6310574;28;20020;-76
2024/03/09 13:27:43;;;;;;;1.10;0.35;;;21.60;23.80;;;;;;6317173;28;20036;-77
2024/03/09 13:30:45;;;;;;;2.13;0.38;;;21.50;24.20;;;;;;6313326;28;20016;-76
2024/03/09 13:33:47;;;;;;;0.30;0.28;;;21.50;24.30;;;;;;6311203;28;20019;-76
2024/03/09 13:36:48;;;;;;;0.98;0.60;;;21.40;24.00;;;;;;6308731;28;20384;-78
2024/03/09 13:39:49;;;;;;;0.40;0.30;;;21.30;23.60;;;;;;6312283;28;20382;-78
2024/03/09 13:51:38;;;;;;;0.43;0.40;;;21.10;24.50;;;;;;6321807;28;20071;-77
2024/03/09 13:54:44;;;;;;;5.80;0.50;;;21.10;24.30;;;;;;6311995;28;20136;-77
2024/03/09 13:57:45;;;;;;;0.20;0.20;;;21.10;24.20;;;;;;6316288;28;20035;-77
2024/03/09 14:00:49;;;;;;;0.10;0.10;;;21.00;24.50;;;;;;6337076;28;20016;-75
2024/03/09 14:03:51;;;;;;;0.20;0.20;;;20.90;23.90;;;;;;6330709;28;20038;-77
2024/03/09 14:06:55;;;;;;;0.52;0.25;;;20.90;24.20;;;;;;6310618;28;20044;-75
2024/03/09 14:09:56;;;;;;;0.00;0.00;;;20.90;24.60;;;;;;6307910;28;20055;-73
2024/03/09 14:12:57;;;;;;;0.35;0.30;;;20.80;24.10;;;;;;6294770;28;20032;-75
2024/03/09 14:15:58;;;;;;;2.65;0.20;;;20.70;24.50;;;;;;6326253;28;20024;-75
2024/03/09 14:18:59;;;;;;;0.75;0.20;;;20.70;24.50;;;;;;6311832;28;20523;-74
2024/03/09 14:22:01;;;;;;;0.45;0.10;;;20.60;24.40;;;;;;6312228;28;20024;-76
2024/03/09 14:25:03;;;;;;;2.08;0.52;;;20.60;24.70;;;;;;6302782;28;20031;-75
2024/03/09 14:28:06;;;;;;;0.82;0.40;;;20.50;24.50;;;;;;6296313;28;20024;-75
2024/03/09 14:31:14;;;;;;;0.35;0.22;;;20.50;24.70;;;;;;6297013;28;20040;-75
2024/03/09 14:34:15;;;;;;;0.35;0.10;;;20.50;24.70;;;;;;6312371;28;20124;-73
2024/03/09 14:37:18;;;;;;;0.22;0.13;;;20.40;24.90;;;;;;6314649;28;20364;-73
2024/03/09 14:40:19;;;;;;;0.45;0.20;;;20.40;24.60;;;;;;6314148;28;20016;-76
2024/03/09 14:43:23;;;;;;;0.10;0.10;;;20.30;24.30;;;;;;6311609;28;20502;-75
2024/03/09 14:46:28;;;;;;;0.47;0.30;;;20.30;24.20;;;;;;6299575;28;20032;-76
2024/03/09 14:49:31;;;;;;;0.45;0.22;;;20.40;24.60;;;;;;6310632;28;20108;-75
2024/03/09 14:52:34;;;;;;;1.25;0.22;;;20.40;24.70;;;;;;6294531;28;20024;-75
2024/03/09 14:55:37;;;;;;;0.95;0.60;;;20.40;24.40;;;;;;6306531;28;20443;-77
2024/03/09 14:58:44;;;;;;;1.80;0.32;;;20.50;24.30;;;;;;6313570;28;20026;-77
2024/03/09 15:01:46;;;;;;;0.63;0.32;;;20.50;24.10;;;;;;6312707;28;20109;-74
2024/03/09 15:04:48;;;;;;;0.10;0.10;;;20.60;24.00;;;;;;6312321;28;20020;-74
2024/03/09 15:07:49;;;;;;;0.20;0.20;;;20.50;24.00;;;;;;6277506;28;20154;-75
2024/03/09 15:10:54;;;;;;;1.15;0.20;;;20.50;23.90;;;;;;6313349;28;20024;-76
2024/03/09 15:13:57;;;;;;;0.13;0.10;;;20.50;23.80;;;;;;6313439;28;20032;-75
2024/03/09 15:17:05;;;;;;;1.50;0.50;;;20.40;23.80;;;;;;6310330;28;20012;-72
2024/03/09 15:20:06;;;;;;;0.20;0.10;;;20.40;24.10;;;;;;6311821;28;20038;-75
2024/03/09 15:23:10;;;;;;;3.97;0.40;;;20.40;24.70;;;;;;6313253;28;20388;-74
2024/03/09 15:26:10;;;;;;;0.30;0.20;;;20.30;24.40;;;;;;6293311;28;20511;-74
2024/03/09 15:29:13;;;;;;;0.40;0.08;;;20.30;24.70;;;;;;6305596;28;20055;-74
2024/03/09 15:32:14;;;;;;;0.00;0.00;;;20.20;24.60;;;;;;6308074;28;20024;-74
2024/03/09 15:35:15;;;;;;;0.10;0.10;;;20.10;24.80;;;;;;6309467;28;20349;-74
2024/03/09 15:38:17;;;;;;;1.15;0.10;;;20.00;24.90;;;;;;6305612;28;20020;-76
2024/03/09 15:41:17;;;;;;;2.05;0.70;;;20.00;25.10;;;;;;6306754;28;20024;-75
2024/03/09 15:44:24;;;;;;;0.10;0.10;;;20.00;25.30;;;;;;6308316;28;20024;-74
2024/03/09 15:47:27;;;;;;;1.55;0.32;;;19.90;25.40;;;;;;6289258;28;20043;-75
2024/03/09 15:50:28;;;;;;;0.00;0.00;;;19.80;25.70;;;;;;6309147;28;20024;-75
2024/03/09 15:53:31;;;;;;;1.48;0.20;;;19.90;26.20;;;;;;6312512;28;20129;-75
2024/03/09 15:56:34;;;;;;;0.20;0.20;;;19.70;26.30;;;;;;6319316;28;20023;-74
2024/03/09 15:59:37;;;;;;;0.80;0.28;;;19.60;26.50;;;;;;6318650;28;20111;-77
2024/03/09 16:02:41;;;;;;;1.30;0.13;;;19.50;26.70;;;;;;6320503;28;20020;-75